createdAt,value
2023-02-11T00:00:22.971Z,16.52
2023-02-11T00:02:49.725Z,18.23
2023-02-11T00:05:16.938Z,16.88
2023-02-11T00:07:43.745Z,15.43
2023-02-11T00:10:10.608Z,17.85
2023-02-11T00:12:38.239Z,17.15
2023-02-11T00:15:07.943Z,17.90
2023-02-11T00:20:01.423Z,14.32
2023-02-11T00:22:28.259Z,15.75
2023-02-11T00:24:57.016Z,17.15
2023-02-11T00:27:23.799Z,17.53
2023-02-11T00:29:51.631Z,16.92
2023-02-11T00:32:18.492Z,17.42
2023-02-11T00:34:45.387Z,17.42
2023-02-11T00:37:13.635Z,18.42
2023-02-11T00:39:42.042Z,17.25
2023-02-11T00:42:16.341Z,17.55
2023-02-11T00:44:45.305Z,17.17
2023-02-11T00:47:12.157Z,16.77
2023-02-11T00:49:40.286Z,16.27
2023-02-11T00:52:07.141Z,16.65
2023-02-11T00:54:34.928Z,17.08
2023-02-11T00:57:01.849Z,18.13
2023-02-11T00:59:28.741Z,15.77
2023-02-11T01:01:55.576Z,17.08
2023-02-11T01:04:22.482Z,16.00
2023-02-11T01:09:21.041Z,12.63
2023-02-11T01:11:48.049Z,16.60
2023-02-11T01:14:14.845Z,16.05
2023-02-11T01:16:41.776Z,15.93
2023-02-11T01:19:08.632Z,16.90
2023-02-11T01:21:35.462Z,17.58
2023-02-11T01:24:02.274Z,16.42
2023-02-11T01:26:29.079Z,16.73
2023-02-11T01:29:00.732Z,17.23
2023-02-11T01:31:28.028Z,16.08
2023-02-11T01:33:54.882Z,17.23
2023-02-11T01:36:21.699Z,17.08
2023-02-11T01:38:49.828Z,15.65
2023-02-11T01:41:16.896Z,16.13
2023-02-11T01:43:49.755Z,16.42
2023-02-11T01:46:38.028Z,15.15
2023-02-11T01:49:10.446Z,16.00
2023-02-11T01:51:44.421Z,16.42
2023-02-11T01:54:36.236Z,16.33
2023-02-11T01:57:22.801Z,16.77
2023-02-11T02:00:12.561Z,16.67
2023-02-11T02:03:03.299Z,12.65
2023-02-11T02:05:45.171Z,14.25
2023-02-11T02:08:34.274Z,15.10
2023-02-11T02:11:02.428Z,14.00
2023-02-11T02:13:32.790Z,15.45
2023-02-11T02:16:12.084Z,13.88
2023-02-11T02:18:48.825Z,14.25
2023-02-11T02:22:10.496Z,14.85
2023-02-11T02:25:00.942Z,15.55
2023-02-11T02:27:51.004Z,14.40
2023-02-11T02:31:05.374Z,14.63
2023-02-11T02:33:53.232Z,13.60
2023-02-11T02:36:38.008Z,13.77
2023-02-11T02:39:24.705Z,14.77
2023-02-11T02:41:53.629Z,14.32
2023-02-11T02:44:21.261Z,15.02
2023-02-11T02:46:48.091Z,15.07
2023-02-11T02:49:16.719Z,15.85
2023-02-11T02:52:12.298Z,16.27
2023-02-11T02:55:26.640Z,12.07
2023-02-11T02:58:14.413Z,15.20
2023-02-11T03:00:58.935Z,15.15
2023-02-11T03:04:00.041Z,13.35
2023-02-11T03:07:00.694Z,13.90
2023-02-11T03:09:34.765Z,14.10
2023-02-11T03:12:03.401Z,13.27
2023-02-11T03:14:32.294Z,14.23
2023-02-11T03:17:03.734Z,13.35
2023-02-11T03:19:44.219Z,14.77
2023-02-11T03:22:37.181Z,14.55
2023-02-11T03:25:05.187Z,15.02
2023-02-11T03:27:53.043Z,14.05
2023-02-11T03:30:35.075Z,15.55
2023-02-11T03:33:18.431Z,14.98
2023-02-11T03:35:56.745Z,14.95
2023-02-11T03:38:31.681Z,15.60
2023-02-11T03:40:59.816Z,14.82
2023-02-11T03:43:33.674Z,14.38
2023-02-11T03:46:02.580Z,13.65
2023-02-11T03:48:39.544Z,14.07
2023-02-11T03:51:09.615Z,14.07
2023-02-11T03:53:39.004Z,14.93
2023-02-11T03:56:10.345Z,13.77
2023-02-11T03:58:37.373Z,13.23
2023-02-11T04:01:05.133Z,14.43
2023-02-11T04:03:32.907Z,13.57
2023-02-11T04:05:59.849Z,14.52
2023-02-11T04:08:26.632Z,14.30
2023-02-11T04:10:53.392Z,14.65
2023-02-11T04:13:20.181Z,13.10
2023-02-11T04:15:48.865Z,14.45
2023-02-11T04:18:15.887Z,13.35
2023-02-11T04:20:42.746Z,14.32
2023-02-11T04:23:10.102Z,13.65
2023-02-11T04:25:36.988Z,11.98
2023-02-11T04:28:03.910Z,12.15
2023-02-11T04:30:30.703Z,14.40
2023-02-11T04:32:58.820Z,13.82
2023-02-11T04:35:25.662Z,13.70
2023-02-11T04:37:52.463Z,14.48
2023-02-11T04:40:19.325Z,14.38
2023-02-11T04:42:46.088Z,14.45
2023-02-11T04:45:12.868Z,14.15
2023-02-11T04:47:39.935Z,14.60
2023-02-11T04:50:06.939Z,15.38
2023-02-11T04:52:33.722Z,14.75
2023-02-11T04:55:00.493Z,14.90
2023-02-11T04:57:27.277Z,14.75
2023-02-11T04:59:54.040Z,14.82
2023-02-11T05:02:20.810Z,14.73
2023-02-11T05:04:47.695Z,13.20
2023-02-11T05:07:14.490Z,14.52
2023-02-11T05:09:41.344Z,14.77
2023-02-11T05:12:08.948Z,13.63
2023-02-11T05:14:35.785Z,14.02
2023-02-11T05:17:02.660Z,12.82
2023-02-11T05:19:31.115Z,13.70
2023-02-11T05:22:03.151Z,14.27
2023-02-11T05:24:33.290Z,14.02
2023-02-11T05:27:01.077Z,13.15
2023-02-11T05:29:28.233Z,12.50
2023-02-11T05:31:55.009Z,12.73
2023-02-11T05:34:21.834Z,12.70
2023-02-11T05:36:48.618Z,11.27
2023-02-11T05:39:15.459Z,11.90
2023-02-11T05:41:42.265Z,11.60
2023-02-11T05:44:09.087Z,11.45
2023-02-11T05:46:36.403Z,10.55
2023-02-11T05:49:03.776Z,10.43
2023-02-11T05:51:30.609Z,10.40
2023-02-11T05:53:57.411Z,10.60
2023-02-11T05:56:24.208Z,13.98
2023-02-11T05:58:51.029Z,11.98
2023-02-11T06:01:17.815Z,10.85
2023-02-11T06:03:44.681Z,10.00
2023-02-11T06:06:12.859Z,10.18
2023-02-11T06:08:39.740Z,12.20
2023-02-11T06:11:06.749Z,12.10
2023-02-11T06:13:33.592Z,12.38
2023-02-11T06:16:02.709Z,13.20
2023-02-11T06:18:29.809Z,12.40
2023-02-11T06:20:56.665Z,11.60
2023-02-11T06:23:23.628Z,11.23
2023-02-11T06:25:51.436Z,10.93
2023-02-11T06:28:19.481Z,9.88
2023-02-11T06:30:46.383Z,10.15
2023-02-11T06:33:13.185Z,11.57
2023-02-11T06:35:40.291Z,11.70
2023-02-11T06:38:07.222Z,10.88
2023-02-11T06:40:34.109Z,11.30
2023-02-11T06:43:00.904Z,12.18
2023-02-11T06:45:27.730Z,11.48
2023-02-11T06:47:54.505Z,11.88
2023-02-11T06:50:21.378Z,10.50
2023-02-11T06:52:48.288Z,11.40
2023-02-11T06:55:15.298Z,10.75
2023-02-11T06:57:42.185Z,10.95
2023-02-11T07:00:09.949Z,11.00
2023-02-11T07:02:36.790Z,10.35
2023-02-11T07:05:05.970Z,10.50
2023-02-11T07:07:34.207Z,10.73
2023-02-11T07:10:03.005Z,10.70
2023-02-11T07:12:30.869Z,11.90
2023-02-11T07:14:57.794Z,10.23
2023-02-11T07:17:24.601Z,9.85
2023-02-11T07:19:52.443Z,11.27
2023-02-11T07:22:19.237Z,11.32
2023-02-11T07:24:46.304Z,11.15
2023-02-11T07:27:13.314Z,12.32
2023-02-11T07:29:42.058Z,10.65
2023-02-11T07:32:08.989Z,10.15
2023-02-11T07:34:35.972Z,10.63
2023-02-11T07:37:03.058Z,11.65
2023-02-11T07:39:29.933Z,11.18
2023-02-11T07:41:56.893Z,10.75
2023-02-11T07:44:23.961Z,10.23
2023-02-11T07:46:50.829Z,9.95
2023-02-11T07:49:17.792Z,8.15
2023-02-11T07:51:44.673Z,10.75
2023-02-11T07:54:12.287Z,12.20
2023-02-11T07:56:39.164Z,11.70
2023-02-11T07:59:05.944Z,11.80
2023-02-11T08:01:33.040Z,11.25
2023-02-11T08:04:01.615Z,12.35
2023-02-11T08:06:32.503Z,11.43
2023-02-11T08:09:06.976Z,10.65
2023-02-11T08:11:33.752Z,10.25
2023-02-11T08:14:00.598Z,10.57
2023-02-11T08:16:31.576Z,11.07
2023-02-11T08:19:05.319Z,10.80
2023-02-11T08:21:32.493Z,10.30
2023-02-11T08:24:01.384Z,10.93
2023-02-11T08:26:31.650Z,11.27
2023-02-11T08:28:59.262Z,10.68
2023-02-11T08:31:34.020Z,11.18
2023-02-11T08:34:02.241Z,10.45
2023-02-11T08:36:35.614Z,10.90
2023-02-11T08:39:22.485Z,11.32
2023-02-11T08:41:53.613Z,11.00
2023-02-11T08:44:21.364Z,10.63
2023-02-11T08:46:49.296Z,10.93
2023-02-11T08:49:16.510Z,10.68
2023-02-11T08:51:44.301Z,11.85
2023-02-11T08:54:11.409Z,12.15
2023-02-11T08:56:39.095Z,10.90
2023-02-11T08:59:07.258Z,10.27
2023-02-11T09:01:34.325Z,10.57
2023-02-11T09:04:01.615Z,11.02
2023-02-11T09:06:29.102Z,10.65
2023-02-11T09:08:58.459Z,10.40
2023-02-11T09:11:35.089Z,10.52
2023-02-11T09:14:03.956Z,9.50
2023-02-11T09:16:35.200Z,9.35
2023-02-11T09:19:05.164Z,9.32
2023-02-11T09:23:58.845Z,7.90
2023-02-11T09:26:32.546Z,7.95
2023-02-11T09:29:00.218Z,8.30
2023-02-11T09:31:31.163Z,8.88
2023-02-11T09:34:04.673Z,9.30
2023-02-11T09:36:38.814Z,10.35
2023-02-11T09:39:10.097Z,9.85
2023-02-11T09:42:03.368Z,9.40
2023-02-11T09:44:33.693Z,7.60
2023-02-11T09:47:34.501Z,6.82
2023-02-11T09:50:16.238Z,6.97
2023-02-11T09:52:54.411Z,6.55
2023-02-11T09:55:37.736Z,6.50
2023-02-11T09:58:12.706Z,5.53
2023-02-11T10:01:02.398Z,5.63
2023-02-11T10:03:46.424Z,5.35
2023-02-11T10:06:48.452Z,4.47
2023-02-11T10:09:37.338Z,4.35
2023-02-11T10:12:15.571Z,3.30
2023-02-11T10:15:25.847Z,3.75
2023-02-11T10:18:24.394Z,3.67
2023-02-11T10:21:32.939Z,3.28
2023-02-11T10:24:03.774Z,3.20
2023-02-11T10:26:33.219Z,2.58
2023-02-11T10:29:07.073Z,2.47
2023-02-11T10:31:42.455Z,2.10
2023-02-11T10:34:14.692Z,2.40
2023-02-11T10:36:43.764Z,2.20
2023-02-11T10:39:17.748Z,2.53
2023-02-11T10:41:54.371Z,2.47
2023-02-11T10:44:50.221Z,2.42
2023-02-11T10:47:24.476Z,2.63
2023-02-11T10:49:51.312Z,2.63
2023-02-11T10:52:17.962Z,2.55
2023-02-11T10:54:59.921Z,2.80
2023-02-11T10:57:34.136Z,2.80
2023-02-11T11:00:37.064Z,3.03
2023-02-11T11:03:16.866Z,2.70
2023-02-11T11:06:02.626Z,2.83
2023-02-11T11:08:46.459Z,2.75
2023-02-11T11:11:19.841Z,2.55
2023-02-11T11:13:52.244Z,2.50
2023-02-11T11:16:33.623Z,2.40
2023-02-11T11:19:09.174Z,2.60
2023-02-11T11:21:46.174Z,2.72
2023-02-11T11:24:41.539Z,3.05
2023-02-11T11:27:20.923Z,2.60
2023-02-11T11:29:55.603Z,2.55
2023-02-11T11:32:27.892Z,3.10
2023-02-11T11:35:04.053Z,3.35
2023-02-11T11:37:33.287Z,3.45
2023-02-11T11:40:13.527Z,3.28
2023-02-11T11:42:41.286Z,3.20
2023-02-11T11:45:19.660Z,3.22
2023-02-11T11:48:10.153Z,3.50
2023-02-11T11:50:58.447Z,3.95
2023-02-11T11:53:30.846Z,4.35
2023-02-11T11:56:20.152Z,4.78
2023-02-11T11:58:47.360Z,4.93
2023-02-11T12:01:28.950Z,5.38
2023-02-11T12:04:19.605Z,5.00
2023-02-11T12:07:18.913Z,5.55
2023-02-11T12:10:11.983Z,5.53
2023-02-11T12:13:02.342Z,5.60
2023-02-11T12:16:15.028Z,5.60
2023-02-11T12:19:13.841Z,5.53
2023-02-11T12:22:05.748Z,5.50
2023-02-11T12:25:15.963Z,5.78
2023-02-11T12:28:07.118Z,5.43
2023-02-11T12:31:07.564Z,6.93
2023-02-11T12:33:54.757Z,5.68
2023-02-11T12:36:54.383Z,6.10
2023-02-11T12:39:39.624Z,5.93
2023-02-11T12:42:46.666Z,6.45
2023-02-11T12:45:18.326Z,6.85
2023-02-11T12:48:41.834Z,6.75
2023-02-11T12:51:39.731Z,6.55
2023-02-11T12:54:26.142Z,7.03
2023-02-11T12:57:18.388Z,6.75
2023-02-11T13:00:18.446Z,6.05
2023-02-11T13:03:09.685Z,6.75
2023-02-11T13:05:52.991Z,7.35
2023-02-11T13:08:36.739Z,7.97
2023-02-11T13:11:27.192Z,8.05
2023-02-11T13:14:11.631Z,7.70
2023-02-11T13:16:46.544Z,7.80
2023-02-11T13:19:13.290Z,7.93
2023-02-11T13:22:10.861Z,8.75
2023-02-11T13:25:16.218Z,8.05
2023-02-11T13:28:08.545Z,8.07
2023-02-11T13:30:39.398Z,9.02
2023-02-11T13:33:19.739Z,8.38
2023-02-11T13:36:06.380Z,8.55
2023-02-11T13:38:33.718Z,8.15
2023-02-11T13:41:24.662Z,8.90
2023-02-11T13:44:06.152Z,8.18
2023-02-11T13:46:58.114Z,8.63
2023-02-11T13:49:40.667Z,8.50
2023-02-11T13:52:30.459Z,9.18
2023-02-11T13:55:08.225Z,8.88
2023-02-11T13:57:38.050Z,9.55
2023-02-11T14:00:33.383Z,8.77
2023-02-11T14:03:30.450Z,9.00
2023-02-11T14:06:41.616Z,8.75
2023-02-11T14:09:14.665Z,8.45
2023-02-11T14:11:41.885Z,7.60
2023-02-11T14:14:27.456Z,7.97
2023-02-11T14:17:02.882Z,7.50
2023-02-11T14:19:45.336Z,7.78
2023-02-11T14:22:26.963Z,7.90
2023-02-11T14:25:02.978Z,8.43
2023-02-11T14:28:07.563Z,6.88
2023-02-11T14:30:54.923Z,8.70
2023-02-11T14:33:52.459Z,7.95
2023-02-11T14:36:44.569Z,7.65
2023-02-11T14:39:52.958Z,7.50
2023-02-11T14:42:25.313Z,7.35
2023-02-11T14:44:58.504Z,9.05
2023-02-11T14:47:36.930Z,8.35
2023-02-11T14:50:06.534Z,9.48
2023-02-11T14:52:38.018Z,8.20
2023-02-11T14:55:37.942Z,8.55
2023-02-11T15:01:01.671Z,8.45
2023-02-11T15:03:31.385Z,7.90
2023-02-11T15:06:16.190Z,8.32
2023-02-11T15:08:50.310Z,8.38
2023-02-11T15:11:21.425Z,9.25
2023-02-11T15:13:50.203Z,8.90
2023-02-11T15:16:22.538Z,8.52
2023-02-11T15:18:57.995Z,8.52
2023-02-11T15:21:29.716Z,9.00
2023-02-11T15:24:02.388Z,7.97
2023-02-11T15:26:30.145Z,8.55
2023-02-11T15:28:56.937Z,8.95
2023-02-11T15:31:27.040Z,8.50
2023-02-11T15:33:54.833Z,8.48
2023-02-11T15:36:28.446Z,8.18
2023-02-11T15:39:49.669Z,8.10
2023-02-11T15:42:20.837Z,8.57
2023-02-11T15:44:56.312Z,9.25
2023-02-11T15:47:23.741Z,9.93
2023-02-11T15:49:51.084Z,9.88
2023-02-11T15:52:25.545Z,9.95
2023-02-11T15:54:54.795Z,9.02
2023-02-11T15:57:23.119Z,9.80
2023-02-11T15:59:53.306Z,8.70
2023-02-11T16:02:34.997Z,9.07
2023-02-11T16:05:09.373Z,8.50
2023-02-11T16:07:50.971Z,9.32
2023-02-11T16:10:32.314Z,9.57
2023-02-11T16:13:07.367Z,9.85
2023-02-11T16:15:34.101Z,10.27
2023-02-11T16:18:15.610Z,9.80
2023-02-11T16:20:47.986Z,9.25
2023-02-11T16:23:24.553Z,10.50
2023-02-11T16:26:31.131Z,11.13
2023-02-11T16:29:23.227Z,10.70
2023-02-11T16:31:50.572Z,10.90
2023-02-11T16:34:23.349Z,11.55
2023-02-11T16:36:51.857Z,10.57
2023-02-11T16:39:23.284Z,10.82
2023-02-11T16:41:51.607Z,10.55
2023-02-11T16:44:19.034Z,11.30
2023-02-11T16:46:46.127Z,10.43
2023-02-11T16:49:27.938Z,10.95
2023-02-11T16:52:00.923Z,10.68
2023-02-11T16:54:29.569Z,10.48
2023-02-11T16:56:57.449Z,11.10
2023-02-11T16:59:24.493Z,11.20
2023-02-11T17:01:53.081Z,11.13
2023-02-11T17:04:25.717Z,11.85
2023-02-11T17:06:52.816Z,12.18
2023-02-11T17:09:27.796Z,10.65
2023-02-11T17:11:56.638Z,11.38
2023-02-11T17:14:23.447Z,11.68
2023-02-11T17:16:50.469Z,11.50
2023-02-11T17:19:20.922Z,10.98
2023-02-11T17:21:50.999Z,11.70
2023-02-11T17:26:46.378Z,9.95
2023-02-11T17:29:16.826Z,11.43
2023-02-11T17:31:44.233Z,11.07
2023-02-11T17:34:11.805Z,11.10
2023-02-11T17:36:41.196Z,11.60
2023-02-11T17:39:08.611Z,11.57
2023-02-11T17:41:37.713Z,12.07
2023-02-11T17:44:05.121Z,11.67
2023-02-11T17:46:32.305Z,13.07
2023-02-11T17:48:59.704Z,16.63
2023-02-11T17:51:27.916Z,18.95
2023-02-11T17:53:57.467Z,15.45
2023-02-11T17:56:24.538Z,11.23
2023-02-11T17:58:52.893Z,11.80
2023-02-11T18:01:20.405Z,13.75
2023-02-11T18:03:47.425Z,13.80
2023-02-11T18:06:14.341Z,17.50
2023-02-11T18:08:42.920Z,17.20
2023-02-11T18:11:12.377Z,19.52
2023-02-11T18:13:39.248Z,14.80
2023-02-11T18:16:08.240Z,14.52
2023-02-11T18:18:35.226Z,13.23
2023-02-11T18:21:08.788Z,12.93
2023-02-11T18:23:36.110Z,14.05
2023-02-11T18:26:07.091Z,13.48
2023-02-11T18:28:33.997Z,13.10
2023-02-11T18:31:01.877Z,14.30
2023-02-11T18:33:30.483Z,14.85
2023-02-11T18:35:57.487Z,13.65
2023-02-11T18:38:25.001Z,13.27
2023-02-11T18:40:52.315Z,13.65
2023-02-11T18:43:20.168Z,13.73
2023-02-11T18:45:49.021Z,12.95
2023-02-11T18:48:17.221Z,14.18
2023-02-11T18:50:46.275Z,17.13
2023-02-11T18:53:15.872Z,13.63
2023-02-11T18:55:44.457Z,12.98
2023-02-11T18:58:11.622Z,11.98
2023-02-11T19:00:45.463Z,12.32
2023-02-11T19:03:12.294Z,12.88
2023-02-11T19:05:46.960Z,11.38
2023-02-11T19:08:14.539Z,12.07
2023-02-11T19:10:44.602Z,11.45
2023-02-11T19:13:11.513Z,11.07
2023-02-11T19:15:47.736Z,10.80
2023-02-11T19:18:16.296Z,10.93
2023-02-11T19:20:44.462Z,11.75
2023-02-11T19:23:11.493Z,11.63
2023-02-11T19:25:45.312Z,12.20
2023-02-11T19:28:12.973Z,11.73
2023-02-11T19:30:40.205Z,11.77
2023-02-11T19:33:09.939Z,12.35
2023-02-11T19:38:06.534Z,10.75
2023-02-11T19:40:33.544Z,11.05
2023-02-11T19:43:00.357Z,13.10
2023-02-11T19:45:27.245Z,11.13
2023-02-11T19:47:57.869Z,10.20
2023-02-11T19:50:25.265Z,10.13
2023-02-11T19:52:52.188Z,10.75
2023-02-11T19:55:19.080Z,10.70
2023-02-11T19:57:46.307Z,10.35
2023-02-11T20:00:13.730Z,9.77
2023-02-11T20:02:41.186Z,9.00
2023-02-11T20:05:08.365Z,8.18
2023-02-11T20:07:35.300Z,9.55
2023-02-11T20:10:02.421Z,8.65
2023-02-11T20:12:29.400Z,9.18
2023-02-11T20:14:56.324Z,10.25
2023-02-11T20:17:23.133Z,9.05
2023-02-11T20:19:49.942Z,10.38
2023-02-11T20:22:16.738Z,10.95
2023-02-11T20:24:43.550Z,10.63
2023-02-11T20:27:11.408Z,11.75
2023-02-11T20:29:39.328Z,12.52
2023-02-11T20:32:07.462Z,12.10
2023-02-11T20:34:34.422Z,11.23
2023-02-11T20:37:02.118Z,10.93
2023-02-11T20:39:28.928Z,9.70
2023-02-11T20:41:57.404Z,11.15
2023-02-11T20:44:24.649Z,12.20
2023-02-11T20:46:53.909Z,12.45
2023-02-11T20:49:23.964Z,13.00
2023-02-11T20:51:52.369Z,13.57
2023-02-11T20:54:21.036Z,14.52
2023-02-11T20:56:53.484Z,14.85
2023-02-11T20:59:21.060Z,14.65
2023-02-11T21:01:53.159Z,14.40
2023-02-11T21:04:27.169Z,13.93
2023-02-11T21:06:58.312Z,14.70
2023-02-11T21:09:29.654Z,14.80
2023-02-11T21:11:56.938Z,14.90
2023-02-11T21:14:25.331Z,15.70
2023-02-11T21:16:52.414Z,15.27
2023-02-11T21:19:20.264Z,15.23
2023-02-11T21:21:47.218Z,17.33
2023-02-11T21:24:14.515Z,16.55
2023-02-11T21:26:41.471Z,16.42
2023-02-11T21:29:09.655Z,15.75
2023-02-11T21:31:37.322Z,14.82
2023-02-11T21:34:05.781Z,15.73
2023-02-11T21:36:33.046Z,17.27
2023-02-11T21:39:01.557Z,16.23
2023-02-11T21:41:28.329Z,15.43
2023-02-11T21:43:55.233Z,16.42
2023-02-11T21:46:22.887Z,16.98
2023-02-11T21:48:50.257Z,17.60
2023-02-11T21:51:21.463Z,16.92
2023-02-11T21:53:52.197Z,16.60
2023-02-11T21:56:19.074Z,16.00
2023-02-11T21:58:46.612Z,17.20
2023-02-11T22:01:18.666Z,15.25
2023-02-11T22:03:46.225Z,12.88
2023-02-11T22:06:17.360Z,10.75
2023-02-11T22:08:44.227Z,16.30
2023-02-11T22:11:12.787Z,13.52
2023-02-11T22:13:41.012Z,12.15
2023-02-11T22:16:14.038Z,11.00
2023-02-11T22:18:42.144Z,11.88
2023-02-11T22:21:12.735Z,14.80
2023-02-11T22:23:40.175Z,14.50
2023-02-11T22:26:11.170Z,14.60
2023-02-11T22:28:40.417Z,16.65
2023-02-11T22:31:12.263Z,17.85
2023-02-11T22:33:39.666Z,17.88
2023-02-11T22:36:12.520Z,18.40
2023-02-11T22:38:39.342Z,17.30
2023-02-11T22:41:09.865Z,21.65
2023-02-11T22:43:37.852Z,19.77
2023-02-11T22:46:07.706Z,19.75
2023-02-11T22:51:13.623Z,12.60
2023-02-11T22:53:40.700Z,13.85
2023-02-11T22:56:15.744Z,12.23
2023-02-11T22:58:43.097Z,13.38
2023-02-11T23:01:10.464Z,15.27
2023-02-11T23:03:37.328Z,13.55
2023-02-11T23:06:04.749Z,13.55
2023-02-11T23:08:32.610Z,13.95
2023-02-11T23:11:11.510Z,12.75
2023-02-11T23:13:40.870Z,14.02
2023-02-11T23:16:12.140Z,14.43
2023-02-11T23:18:42.979Z,14.60
2023-02-11T23:21:15.738Z,13.27
2023-02-11T23:23:43.045Z,13.02
2023-02-11T23:26:17.170Z,12.20
2023-02-11T23:28:47.444Z,12.88
2023-02-11T23:31:20.430Z,13.60
2023-02-11T23:33:48.593Z,13.43
2023-02-11T23:36:17.212Z,11.95
2023-02-11T23:38:44.598Z,12.00
2023-02-11T23:41:12.129Z,12.57
2023-02-11T23:43:39.066Z,12.30
2023-02-11T23:46:06.791Z,11.68
2023-02-11T23:48:35.807Z,10.85
2023-02-11T23:51:03.612Z,10.87
2023-02-11T23:53:30.470Z,12.63
2023-02-11T23:55:57.492Z,14.82
2023-02-11T23:58:24.309Z,14.23
